EFHKEFTP

Guest
Details From EFHK - Helsinki Vantaa
To EFTP - Tampere Pirkkala
Flight Number -
Tags Generated
Created
Modified
Stats Distance 76 nm / 141 km
Max Altitude 0 ft / 0 m
Waypoints 2
Social Downloads 2
Likes 0
Share VATSIM

Download

Looking for another format? Having issues loading an existing format? Contact us
Advertisement - Login to hide

Notes

Generated

Route

EFHK EFTP

ID Type Via Altitude Latitude Longitude Leg Dist Tot Dist Heading (true) Name
O EFHK APT - 0 ft / 0 m 60.33028˚ 24.96450˚ - 0 nm - -
O EFTP APT - 0 ft / 0 m 61.40892˚ 23.58159˚ 76 nm 76 nm 329° / 327° -

Altitude Profile

Advertisement - Login to hide

EFHK

Details ICAO EFHK (HEL)
Name Helsinki Vantaa
Region Finland
Timezone Europe/Helsinki (UTC+3.0)
Stats Elevation 179 ft / 55 m (AMSL)
Location 60.320569° 24.952668°
Runways 3
Magnetic Variation 9.022° E

METAR

EFHK 221220Z 14010KT 110V180 CAVOK 24/06 Q1021 NOSIG

Decode

TAF

TAF EFHK 221125Z 2212/2312 13009KT CAVOK PROB30 TEMPO 2222/2302 FEW060CB BKN170 TEMPO 2302/2312 FEW060CB BKN180 BECMG 2306/2308 32010KT

Decode

Departure Runways

ID Width Length Bearing (true) Bearing (mag) Surface Threshold Offset Overrun Length
04L 197 ft / 60 m 9,817 ft / 2,992 m 47.43° 38.41° Asphalt 800 ft / 244 m 0 ft / 0 m
04R 197 ft / 60 m 10,472 ft / 3,192 m 47.46° 38.44° Asphalt 262 ft / 80 m 0 ft / 0 m
15 197 ft / 60 m 9,497 ft / 2,895 m 153.08° 144.06° Asphalt 0 ft / 0 m 198 ft / 60 m
22L 197 ft / 60 m 10,472 ft / 3,192 m 227.50° 218.48° Asphalt 0 ft / 0 m 197 ft / 60 m
22R 197 ft / 60 m 9,817 ft / 2,992 m 227.46° 218.44° Asphalt 912 ft / 278 m 0 ft / 0 m
33 197 ft / 60 m 9,497 ft / 2,895 m 333.10° 324.08° Asphalt 0 ft / 0 m 197 ft / 60 m

EFTP

Details ICAO EFTP (TMP)
Name Tampere Pirkkala
Region Finland
Timezone Europe/Helsinki (UTC+3.0)
Stats Elevation 390 ft / 119 m (AMSL)
Location 61.414145° 23.604397°
Runways 1
Magnetic Variation 8.827° E

METAR

EFTP 221220Z 18004KT 090V320 CAVOK 24/06 Q1020

Decode

TAF

TAF EFTP 221125Z 2212/2312 19005KT CAVOK PROB40 TEMPO 2300/2305 FEW040CB BECMG 2309/2311 36010KT

Decode

Destination Runways

ID Width Length Bearing (true) Bearing (mag) Surface Threshold Offset Overrun Length
06 148 ft / 45 m 8,831 ft / 2,692 m 64.40° 55.57° Asphalt 0 ft / 0 m 801 ft / 244 m
24 148 ft / 45 m 8,831 ft / 2,692 m 244.45° 235.62° Asphalt 0 ft / 0 m 640 ft / 195 m

Approach Navaids

Runway Type Ident Frequency Range Bearing (true) Bearing (mag) Slope Elevation
24 Localiser TP 109.70 MHz 18 nm / 33 km 244.40° 235.57° - 390 ft / 119 m (AMSL)
24 Glidescope TP 109.70 MHz 10 nm / 19 km 244.43° 235.60° 3.00° 390 ft / 119 m (AMSL)

Popular Alternatives